首页
METAR-TAF:

METAR-TAF

机场 :

巴馬科, 马里共和国

巴馬科國際機場

纬度: 12-32N, 经度: 007-57W, 海拔: 380米

当前天气观测

该预报发布于25分钟前的06:30 UTC
风速1节,风向西北
温度 25°C
湿度 34%
气压 1012 hPa
能见度10公里或以上
1500米以下无云,无积雨云

METAR: GABS 250630Z 31001KT CAVOK 25/08 Q1012 NOSIG

时间: 06:55 (06:55 UTC)

预报

该预报发布于1小时和55分钟前的05:00 UTC
预报有效从25日的 06点(UTC)到 26日的 12点(UTC)
风速8节,风向西转西北
能見度: 8000
少量云层高于4000英尺
几率 30% :
短暂存在
从 25日的 16点(UTC)到 25日的 22点(UTC)
散云层高于3000英尺
少量云层高于4000英尺, 积雨云.
雷暴, 雨

TAF: GABS 250500Z 2506/2612 30008KT 8000 FEW040 PROB30 TEMPO 2516/2522 TSRA SCT030 FEW040CB

超过4000个机场的气象观测和天气预报(METAR&TAF报告)。

可查询的气象台以黄色和红色小点在地图上表示。

将鼠标移到小点上方,可查看气象台名称。

然后点击查看天气观测和预报。

如需切换地图:点击带黑十字的绿色按钮放大地图;点击带横线的绿色按钮缩小地图;或者点击绿色箭头查看邻近地区的地图。


METAR-TAF: